sensor_id;sensor_type;location;lat;lon;timestamp;P1;durP1;ratioP1;P2;durP2;ratioP2
59310;SDS011;45078;51.654;21.250;2023-02-14T00:02:22;10.98;;;5.35;;
59310;SDS011;45078;51.654;21.250;2023-02-14T00:04:48;9.38;;;3.88;;
59310;SDS011;45078;51.654;21.250;2023-02-14T00:07:14;12.05;;;5.07;;
59310;SDS011;45078;51.654;21.250;2023-02-14T00:09:40;12.25;;;4.43;;
59310;SDS011;45078;51.654;21.250;2023-02-14T00:12:05;16.42;;;5.65;;
59310;SDS011;45078;51.654;21.250;2023-02-14T00:14:31;8.05;;;3.90;;
59310;SDS011;45078;51.654;21.250;2023-02-14T00:17:16;13.25;;;4.38;;
59310;SDS011;45078;51.654;21.250;2023-02-14T00:19:42;15.70;;;5.82;;
59310;SDS011;45078;51.654;21.250;2023-02-14T00:22:09;9.70;;;4.25;;
59310;SDS011;45078;51.654;21.250;2023-02-14T00:24:35;10.38;;;3.78;;
59310;SDS011;45078;51.654;21.250;2023-02-14T00:27:00;10.85;;;5.22;;
59310;SDS011;45078;51.654;21.250;2023-02-14T00:29:27;9.80;;;4.72;;
59310;SDS011;45078;51.654;21.250;2023-02-14T00:31:55;9.50;;;4.45;;
59310;SDS011;45078;51.654;21.250;2023-02-14T00:34:21;16.17;;;5.35;;
59310;SDS011;45078;51.654;21.250;2023-02-14T00:36:46;16.40;;;5.07;;
59310;SDS011;45078;51.654;21.250;2023-02-14T00:39:13;13.70;;;5.18;;
59310;SDS011;45078;51.654;21.250;2023-02-14T00:41:40;22.42;;;5.05;;
59310;SDS011;45078;51.654;21.250;2023-02-14T00:44:07;9.48;;;4.13;;
59310;SDS011;45078;51.654;21.250;2023-02-14T00:46:33;11.38;;;4.97;;
59310;SDS011;45078;51.654;21.250;2023-02-14T00:48:59;9.82;;;4.53;;
59310;SDS011;45078;51.654;21.250;2023-02-14T00:51:25;9.73;;;4.90;;
59310;SDS011;45078;51.654;21.250;2023-02-14T00:53:51;6.82;;;3.35;;
59310;SDS011;45078;51.654;21.250;2023-02-14T00:56:17;7.63;;;4.88;;
59310;SDS011;45078;51.654;21.250;2023-02-14T00:58:44;6.43;;;4.13;;
59310;SDS011;45078;51.654;21.250;2023-02-14T01:01:11;13.57;;;5.55;;
59310;SDS011;45078;51.654;21.250;2023-02-14T01:03:38;12.63;;;5.15;;
59310;SDS011;45078;51.654;21.250;2023-02-14T01:06:04;10.27;;;4.80;;
59310;SDS011;45078;51.654;21.250;2023-02-14T01:08:30;8.52;;;5.30;;
59310;SDS011;45078;51.654;21.250;2023-02-14T01:10:57;11.00;;;5.15;;
59310;SDS011;45078;51.654;21.250;2023-02-14T01:13:30;6.63;;;3.78;;
59310;SDS011;45078;51.654;21.250;2023-02-14T01:15:56;15.05;;;5.70;;
59310;SDS011;45078;51.654;21.250;2023-02-14T01:18:21;6.13;;;4.25;;
59310;SDS011;45078;51.654;21.250;2023-02-14T01:20:47;9.65;;;5.30;;
59310;SDS011;45078;51.654;21.250;2023-02-14T01:23:13;9.52;;;5.20;;
59310;SDS011;45078;51.654;21.250;2023-02-14T01:25:39;11.35;;;4.68;;
59310;SDS011;45078;51.654;21.250;2023-02-14T01:28:05;9.13;;;4.65;;
59310;SDS011;45078;51.654;21.250;2023-02-14T01:30:31;9.50;;;4.75;;
59310;SDS011;45078;51.654;21.250;2023-02-14T01:32:57;12.38;;;5.90;;
59310;SDS011;45078;51.654;21.250;2023-02-14T01:35:23;8.93;;;5.47;;
59310;SDS011;45078;51.654;21.250;2023-02-14T01:37:49;11.82;;;4.35;;
59310;SDS011;45078;51.654;21.250;2023-02-14T01:40:15;11.50;;;4.88;;
59310;SDS011;45078;51.654;21.250;2023-02-14T01:42:41;9.45;;;4.53;;
59310;SDS011;45078;51.654;21.250;2023-02-14T01:45:17;9.43;;;5.13;;
59310;SDS011;45078;51.654;21.250;2023-02-14T01:47:45;11.07;;;4.53;;
59310;SDS011;45078;51.654;21.250;2023-02-14T01:50:17;14.88;;;6.45;;
59310;SDS011;45078;51.654;21.250;2023-02-14T01:52:54;11.25;;;5.13;;
59310;SDS011;45078;51.654;21.250;2023-02-14T01:55:26;10.13;;;4.93;;
59310;SDS011;45078;51.654;21.250;2023-02-14T01:57:57;12.30;;;5.88;;
59310;SDS011;45078;51.654;21.250;2023-02-14T02:00:26;12.00;;;5.18;;
59310;SDS011;45078;51.654;21.250;2023-02-14T02:03:11;9.10;;;5.03;;
59310;SDS011;45078;51.654;21.250;2023-02-14T02:05:40;8.35;;;4.85;;
59310;SDS011;45078;51.654;21.250;2023-02-14T02:10:37;10.15;;;5.38;;
59310;SDS011;45078;51.654;21.250;2023-02-14T02:13:04;7.80;;;4.63;;
59310;SDS011;45078;51.654;21.250;2023-02-14T02:15:34;15.98;;;6.43;;
59310;SDS011;45078;51.654;21.250;2023-02-14T02:18:10;15.80;;;5.38;;
59310;SDS011;45078;51.654;21.250;2023-02-14T02:21:31;6.97;;;4.60;;
59310;SDS011;45078;51.654;21.250;2023-02-14T02:32:36;8.18;;;3.95;;
59310;SDS011;45078;51.654;21.250;2023-02-14T02:43:25;13.98;;;6.03;;
59310;SDS011;45078;51.654;21.250;2023-02-14T02:48:58;8.05;;;4.47;;
59310;SDS011;45078;51.654;21.250;2023-02-14T02:51:32;13.50;;;6.78;;
59310;SDS011;45078;51.654;21.250;2023-02-14T02:57:11;18.92;;;6.28;;
59310;SDS011;45078;51.654;21.250;2023-02-14T02:59:43;10.15;;;5.82;;
59310;SDS011;45078;51.654;21.250;2023-02-14T03:04:38;10.23;;;5.82;;
59310;SDS011;45078;51.654;21.250;2023-02-14T03:15:11;15.10;;;7.00;;
59310;SDS011;45078;51.654;21.250;2023-02-14T03:26:37;13.27;;;6.68;;
59310;SDS011;45078;51.654;21.250;2023-02-14T03:34:31;20.50;;;8.20;;
59310;SDS011;45078;51.654;21.250;2023-02-14T03:37:14;12.88;;;6.10;;
59310;SDS011;45078;51.654;21.250;2023-02-14T03:42:49;17.80;;;5.95;;
59310;SDS011;45078;51.654;21.250;2023-02-14T03:45:21;24.88;;;7.25;;
59310;SDS011;45078;51.654;21.250;2023-02-14T03:47:58;16.90;;;7.72;;
59310;SDS011;45078;51.654;21.250;2023-02-14T03:50:29;13.23;;;5.38;;
59310;SDS011;45078;51.654;21.250;2023-02-14T03:52:57;26.35;;;8.10;;
59310;SDS011;45078;51.654;21.250;2023-02-14T03:55:29;17.80;;;8.27;;
59310;SDS011;45078;51.654;21.250;2023-02-14T04:00:56;14.57;;;7.18;;
59310;SDS011;45078;51.654;21.250;2023-02-14T04:03:30;10.25;;;5.43;;
59310;SDS011;45078;51.654;21.250;2023-02-14T04:05:58;11.75;;;5.88;;
59310;SDS011;45078;51.654;21.250;2023-02-14T04:08:26;16.58;;;6.85;;
59310;SDS011;45078;51.654;21.250;2023-02-14T04:10:53;12.95;;;6.57;;
59310;SDS011;45078;51.654;21.250;2023-02-14T04:13:23;13.20;;;7.03;;
59310;SDS011;45078;51.654;21.250;2023-02-14T04:15:48;16.20;;;6.75;;
59310;SDS011;45078;51.654;21.250;2023-02-14T04:18:14;15.55;;;7.07;;
59310;SDS011;45078;51.654;21.250;2023-02-14T04:20:58;18.83;;;8.23;;
59310;SDS011;45078;51.654;21.250;2023-02-14T04:23:24;18.55;;;7.85;;
59310;SDS011;45078;51.654;21.250;2023-02-14T04:25:50;15.38;;;7.53;;
59310;SDS011;45078;51.654;21.250;2023-02-14T04:28:16;12.50;;;6.40;;
59310;SDS011;45078;51.654;21.250;2023-02-14T04:30:42;19.08;;;8.88;;
59310;SDS011;45078;51.654;21.250;2023-02-14T04:33:07;19.63;;;7.63;;
59310;SDS011;45078;51.654;21.250;2023-02-14T04:35:35;16.48;;;8.50;;
59310;SDS011;45078;51.654;21.250;2023-02-14T04:38:01;18.80;;;7.97;;
59310;SDS011;45078;51.654;21.250;2023-02-14T04:40:28;12.27;;;7.43;;
59310;SDS011;45078;51.654;21.250;2023-02-14T04:42:54;17.40;;;8.60;;
59310;SDS011;45078;51.654;21.250;2023-02-14T04:45:20;11.88;;;6.75;;
59310;SDS011;45078;51.654;21.250;2023-02-14T04:47:46;14.25;;;7.70;;
59310;SDS011;45078;51.654;21.250;2023-02-14T04:50:12;19.58;;;6.40;;
59310;SDS011;45078;51.654;21.250;2023-02-14T04:52:39;20.05;;;7.88;;
59310;SDS011;45078;51.654;21.250;2023-02-14T04:55:05;16.80;;;6.00;;
59310;SDS011;45078;51.654;21.250;2023-02-14T04:57:32;19.13;;;7.80;;
59310;SDS011;45078;51.654;21.250;2023-02-14T04:59:58;14.02;;;7.05;;
59310;SDS011;45078;51.654;21.250;2023-02-14T05:02:24;19.27;;;9.05;;
59310;SDS011;45078;51.654;21.250;2023-02-14T05:04:50;12.55;;;6.20;;
59310;SDS011;45078;51.654;21.250;2023-02-14T05:07:15;16.45;;;6.32;;
59310;SDS011;45078;51.654;21.250;2023-02-14T05:09:41;17.60;;;7.22;;
59310;SDS011;45078;51.654;21.250;2023-02-14T05:12:07;15.60;;;6.82;;
59310;SDS011;45078;51.654;21.250;2023-02-14T05:14:33;13.40;;;7.13;;
59310;SDS011;45078;51.654;21.250;2023-02-14T05:16:59;13.30;;;7.05;;
59310;SDS011;45078;51.654;21.250;2023-02-14T05:19:25;24.95;;;6.72;;
59310;SDS011;45078;51.654;21.250;2023-02-14T05:21:50;25.77;;;9.00;;
59310;SDS011;45078;51.654;21.250;2023-02-14T05:24:16;13.45;;;5.68;;
59310;SDS011;45078;51.654;21.250;2023-02-14T05:26:42;16.90;;;8.48;;
59310;SDS011;45078;51.654;21.250;2023-02-14T05:29:08;17.98;;;8.25;;
59310;SDS011;45078;51.654;21.250;2023-02-14T05:31:33;18.23;;;8.00;;
59310;SDS011;45078;51.654;21.250;2023-02-14T05:33:59;12.82;;;6.03;;
59310;SDS011;45078;51.654;21.250;2023-02-14T05:36:25;14.60;;;7.32;;
59310;SDS011;45078;51.654;21.250;2023-02-14T05:38:51;19.63;;;7.45;;
59310;SDS011;45078;51.654;21.250;2023-02-14T05:41:16;15.82;;;7.35;;
59310;SDS011;45078;51.654;21.250;2023-02-14T05:43:42;16.92;;;8.10;;
59310;SDS011;45078;51.654;21.250;2023-02-14T05:46:08;22.45;;;9.50;;
59310;SDS011;45078;51.654;21.250;2023-02-14T05:48:34;14.90;;;6.07;;
59310;SDS011;45078;51.654;21.250;2023-02-14T05:51:03;14.60;;;6.55;;
59310;SDS011;45078;51.654;21.250;2023-02-14T05:53:30;16.90;;;8.18;;
59310;SDS011;45078;51.654;21.250;2023-02-14T05:55:56;19.48;;;7.90;;
59310;SDS011;45078;51.654;21.250;2023-02-14T05:58:22;17.83;;;7.22;;
59310;SDS011;45078;51.654;21.250;2023-02-14T06:00:48;16.40;;;6.80;;
59310;SDS011;45078;51.654;21.250;2023-02-14T06:03:14;17.20;;;8.40;;
59310;SDS011;45078;51.654;21.250;2023-02-14T06:05:39;14.93;;;6.35;;
59310;SDS011;45078;51.654;21.250;2023-02-14T06:08:05;22.10;;;7.28;;
59310;SDS011;45078;51.654;21.250;2023-02-14T06:10:31;13.07;;;7.05;;
59310;SDS011;45078;51.654;21.250;2023-02-14T06:12:57;12.57;;;6.32;;
59310;SDS011;45078;51.654;21.250;2023-02-14T06:15:23;20.48;;;8.30;;
59310;SDS011;45078;51.654;21.250;2023-02-14T06:17:55;17.55;;;8.43;;
59310;SDS011;45078;51.654;21.250;2023-02-14T06:20:22;17.90;;;8.65;;
59310;SDS011;45078;51.654;21.250;2023-02-14T06:22:49;16.60;;;7.68;;
59310;SDS011;45078;51.654;21.250;2023-02-14T06:25:15;14.48;;;8.10;;
59310;SDS011;45078;51.654;21.250;2023-02-14T06:27:41;23.80;;;8.55;;
59310;SDS011;45078;51.654;21.250;2023-02-14T06:30:07;15.45;;;7.63;;
59310;SDS011;45078;51.654;21.250;2023-02-14T06:32:34;14.63;;;6.70;;
59310;SDS011;45078;51.654;21.250;2023-02-14T06:35:00;16.90;;;7.43;;
59310;SDS011;45078;51.654;21.250;2023-02-14T06:37:27;19.27;;;8.00;;
59310;SDS011;45078;51.654;21.250;2023-02-14T06:39:53;15.20;;;8.10;;
59310;SDS011;45078;51.654;21.250;2023-02-14T06:42:18;11.48;;;6.72;;
59310;SDS011;45078;51.654;21.250;2023-02-14T06:44:44;17.58;;;7.43;;
59310;SDS011;45078;51.654;21.250;2023-02-14T06:47:10;14.68;;;6.80;;
59310;SDS011;45078;51.654;21.250;2023-02-14T06:49:36;18.08;;;8.07;;
59310;SDS011;45078;51.654;21.250;2023-02-14T06:52:03;13.45;;;6.93;;
59310;SDS011;45078;51.654;21.250;2023-02-14T06:54:30;14.88;;;7.47;;
59310;SDS011;45078;51.654;21.250;2023-02-14T06:56:55;15.32;;;6.85;;
59310;SDS011;45078;51.654;21.250;2023-02-14T06:59:21;21.02;;;8.05;;
59310;SDS011;45078;51.654;21.250;2023-02-14T07:01:47;14.60;;;6.25;;
59310;SDS011;45078;51.654;21.250;2023-02-14T07:04:13;20.42;;;9.05;;
59310;SDS011;45078;51.654;21.250;2023-02-14T07:06:38;13.55;;;6.75;;
59310;SDS011;45078;51.654;21.250;2023-02-14T07:09:05;19.30;;;7.25;;
59310;SDS011;45078;51.654;21.250;2023-02-14T07:11:31;14.88;;;6.75;;
59310;SDS011;45078;51.654;21.250;2023-02-14T07:13:57;17.55;;;8.20;;
59310;SDS011;45078;51.654;21.250;2023-02-14T07:16:23;20.10;;;7.80;;
59310;SDS011;45078;51.654;21.250;2023-02-14T07:18:48;16.23;;;6.72;;
59310;SDS011;45078;51.654;21.250;2023-02-14T07:21:14;15.52;;;8.02;;
59310;SDS011;45078;51.654;21.250;2023-02-14T07:23:40;19.60;;;7.63;;
59310;SDS011;45078;51.654;21.250;2023-02-14T07:26:06;14.65;;;7.43;;
59310;SDS011;45078;51.654;21.250;2023-02-14T07:28:32;14.23;;;6.72;;
59310;SDS011;45078;51.654;21.250;2023-02-14T07:30:58;17.92;;;8.02;;
59310;SDS011;45078;51.654;21.250;2023-02-14T07:33:25;18.42;;;7.63;;
59310;SDS011;45078;51.654;21.250;2023-02-14T07:35:51;18.85;;;8.65;;
59310;SDS011;45078;51.654;21.250;2023-02-14T07:38:17;15.55;;;7.95;;
59310;SDS011;45078;51.654;21.250;2023-02-14T07:40:43;17.58;;;7.97;;
59310;SDS011;45078;51.654;21.250;2023-02-14T07:43:08;16.75;;;7.90;;
59310;SDS011;45078;51.654;21.250;2023-02-14T07:45:34;18.55;;;8.38;;
59310;SDS011;45078;51.654;21.250;2023-02-14T07:48:00;16.20;;;7.85;;
59310;SDS011;45078;51.654;21.250;2023-02-14T07:50:26;18.15;;;7.45;;
59310;SDS011;45078;51.654;21.250;2023-02-14T07:52:53;24.02;;;8.93;;
59310;SDS011;45078;51.654;21.250;2023-02-14T07:55:22;17.35;;;7.57;;
59310;SDS011;45078;51.654;21.250;2023-02-14T07:57:49;22.00;;;8.02;;
59310;SDS011;45078;51.654;21.250;2023-02-14T08:00:16;16.98;;;6.85;;
59310;SDS011;45078;51.654;21.250;2023-02-14T08:02:42;18.85;;;7.78;;
59310;SDS011;45078;51.654;21.250;2023-02-14T08:05:08;21.17;;;9.05;;
59310;SDS011;45078;51.654;21.250;2023-02-14T08:07:34;16.23;;;7.13;;
59310;SDS011;45078;51.654;21.250;2023-02-14T08:10:00;19.35;;;8.30;;
59310;SDS011;45078;51.654;21.250;2023-02-14T08:12:25;13.15;;;6.18;;
59310;SDS011;45078;51.654;21.250;2023-02-14T08:15:10;19.60;;;8.90;;
59310;SDS011;45078;51.654;21.250;2023-02-14T08:17:54;17.90;;;6.93;;
59310;SDS011;45078;51.654;21.250;2023-02-14T08:20:21;15.93;;;6.63;;
59310;SDS011;45078;51.654;21.250;2023-02-14T08:22:46;21.13;;;8.35;;
59310;SDS011;45078;51.654;21.250;2023-02-14T08:25:12;16.88;;;7.55;;
59310;SDS011;45078;51.654;21.250;2023-02-14T08:27:39;13.02;;;6.68;;
59310;SDS011;45078;51.654;21.250;2023-02-14T08:30:05;17.38;;;7.22;;
59310;SDS011;45078;51.654;21.250;2023-02-14T08:32:32;13.93;;;5.95;;
59310;SDS011;45078;51.654;21.250;2023-02-14T08:34:58;18.73;;;8.07;;
59310;SDS011;45078;51.654;21.250;2023-02-14T08:37:24;15.93;;;8.43;;
59310;SDS011;45078;51.654;21.250;2023-02-14T08:39:49;20.02;;;7.72;;
59310;SDS011;45078;51.654;21.250;2023-02-14T08:42:15;15.40;;;7.40;;
59310;SDS011;45078;51.654;21.250;2023-02-14T08:44:41;18.52;;;7.57;;
59310;SDS011;45078;51.654;21.250;2023-02-14T08:47:07;18.60;;;8.77;;
59310;SDS011;45078;51.654;21.250;2023-02-14T08:49:33;16.33;;;6.95;;
59310;SDS011;45078;51.654;21.250;2023-02-14T08:51:58;18.90;;;8.38;;
59310;SDS011;45078;51.654;21.250;2023-02-14T08:54:24;23.75;;;8.98;;
59310;SDS011;45078;51.654;21.250;2023-02-14T08:56:50;19.75;;;8.63;;
59310;SDS011;45078;51.654;21.250;2023-02-14T08:59:16;20.55;;;8.35;;
59310;SDS011;45078;51.654;21.250;2023-02-14T09:01:41;16.83;;;7.07;;
59310;SDS011;45078;51.654;21.250;2023-02-14T09:04:07;16.05;;;8.00;;
59310;SDS011;45078;51.654;21.250;2023-02-14T09:06:35;22.80;;;9.23;;
59310;SDS011;45078;51.654;21.250;2023-02-14T09:09:02;21.52;;;7.28;;
59310;SDS011;45078;51.654;21.250;2023-02-14T09:11:28;18.70;;;7.45;;
59310;SDS011;45078;51.654;21.250;2023-02-14T09:13:54;15.60;;;7.85;;
59310;SDS011;45078;51.654;21.250;2023-02-14T09:16:21;13.57;;;7.65;;
59310;SDS011;45078;51.654;21.250;2023-02-14T09:18:49;19.48;;;7.57;;
59310;SDS011;45078;51.654;21.250;2023-02-14T09:21:20;17.75;;;7.43;;
59310;SDS011;45078;51.654;21.250;2023-02-14T09:23:47;17.42;;;7.07;;
59310;SDS011;45078;51.654;21.250;2023-02-14T09:26:14;19.17;;;8.35;;
59310;SDS011;45078;51.654;21.250;2023-02-14T09:28:40;26.63;;;8.00;;
59310;SDS011;45078;51.654;21.250;2023-02-14T09:31:10;16.83;;;8.13;;
59310;SDS011;45078;51.654;21.250;2023-02-14T09:33:45;15.25;;;7.68;;
59310;SDS011;45078;51.654;21.250;2023-02-14T09:36:11;19.38;;;7.50;;
59310;SDS011;45078;51.654;21.250;2023-02-14T09:38:56;19.95;;;7.88;;
59310;SDS011;45078;51.654;21.250;2023-02-14T09:46:22;16.13;;;6.63;;
59310;SDS011;45078;51.654;21.250;2023-02-14T09:48:49;19.10;;;8.15;;
59310;SDS011;45078;51.654;21.250;2023-02-14T09:51:18;21.05;;;8.65;;
59310;SDS011;45078;51.654;21.250;2023-02-14T09:53:51;19.77;;;7.53;;
59310;SDS011;45078;51.654;21.250;2023-02-14T10:02:40;11.35;;;6.00;;
59310;SDS011;45078;51.654;21.250;2023-02-14T10:04:53;14.70;;;6.53;;
59310;SDS011;45078;51.654;21.250;2023-02-14T10:07:44;19.42;;;7.85;;
59310;SDS011;45078;51.654;21.250;2023-02-14T10:10:26;18.50;;;6.95;;
59310;SDS011;45078;51.654;21.250;2023-02-14T10:15:47;16.65;;;7.30;;
59310;SDS011;45078;51.654;21.250;2023-02-14T10:18:24;18.85;;;8.43;;
59310;SDS011;45078;51.654;21.250;2023-02-14T10:20:59;14.52;;;7.38;;
59310;SDS011;45078;51.654;21.250;2023-02-14T10:23:36;21.20;;;9.23;;
59310;SDS011;45078;51.654;21.250;2023-02-14T10:26:32;18.52;;;7.10;;
59310;SDS011;45078;51.654;21.250;2023-02-14T10:29:01;20.10;;;7.97;;
59310;SDS011;45078;51.654;21.250;2023-02-14T10:33:56;10.60;;;5.00;;
59310;SDS011;45078;51.654;21.250;2023-02-14T10:53:41;24.97;;;8.83;;
59310;SDS011;45078;51.654;21.250;2023-02-14T10:56:19;14.00;;;6.50;;
59310;SDS011;45078;51.654;21.250;2023-02-14T11:01:56;13.38;;;6.60;;
59310;SDS011;45078;51.654;21.250;2023-02-14T11:04:24;18.23;;;7.13;;
59310;SDS011;45078;51.654;21.250;2023-02-14T11:06:50;16.48;;;7.53;;
59310;SDS011;45078;51.654;21.250;2023-02-14T11:09:17;22.65;;;8.60;;
59310;SDS011;45078;51.654;21.250;2023-02-14T11:11:50;20.45;;;8.15;;
59310;SDS011;45078;51.654;21.250;2023-02-14T11:14:26;22.92;;;9.68;;
59310;SDS011;45078;51.654;21.250;2023-02-14T11:16:54;18.63;;;8.50;;
59310;SDS011;45078;51.654;21.250;2023-02-14T11:19:25;15.10;;;7.57;;
59310;SDS011;45078;51.654;21.250;2023-02-14T11:22:01;17.58;;;7.32;;
59310;SDS011;45078;51.654;21.250;2023-02-14T11:24:32;21.92;;;9.13;;
59310;SDS011;45078;51.654;21.250;2023-02-14T11:32:11;20.33;;;8.88;;
59310;SDS011;45078;51.654;21.250;2023-02-14T11:39:47;17.58;;;7.18;;
59310;SDS011;45078;51.654;21.250;2023-02-14T11:42:14;19.42;;;7.90;;
59310;SDS011;45078;51.654;21.250;2023-02-14T11:44:58;20.98;;;9.38;;
59310;SDS011;45078;51.654;21.250;2023-02-14T11:47:26;18.85;;;7.78;;
59310;SDS011;45078;51.654;21.250;2023-02-14T11:50:01;18.77;;;9.85;;
59310;SDS011;45078;51.654;21.250;2023-02-14T11:52:31;23.58;;;9.23;;
59310;SDS011;45078;51.654;21.250;2023-02-14T11:54:59;15.30;;;7.18;;
59310;SDS011;45078;51.654;21.250;2023-02-14T11:59:55;20.30;;;8.07;;
59310;SDS011;45078;51.654;21.250;2023-02-14T12:04:53;15.27;;;7.38;;
59310;SDS011;45078;51.654;21.250;2023-02-14T12:07:24;20.17;;;7.28;;
59310;SDS011;45078;51.654;21.250;2023-02-14T12:20:53;20.30;;;8.55;;
59310;SDS011;45078;51.654;21.250;2023-02-14T12:29:14;17.00;;;7.00;;
59310;SDS011;45078;51.654;21.250;2023-02-14T12:31:53;15.73;;;7.68;;
59310;SDS011;45078;51.654;21.250;2023-02-14T12:34:25;17.35;;;7.50;;
59310;SDS011;45078;51.654;21.250;2023-02-14T12:47:45;15.20;;;7.38;;
59310;SDS011;45078;51.654;21.250;2023-02-14T13:01:46;21.85;;;6.30;;
59310;SDS011;45078;51.654;21.250;2023-02-14T13:07:03;20.33;;;8.52;;
59310;SDS011;45078;51.654;21.250;2023-02-14T13:15:47;17.75;;;7.50;;
59310;SDS011;45078;51.654;21.250;2023-02-14T13:21:00;19.52;;;8.55;;
59310;SDS011;45078;51.654;21.250;2023-02-14T13:23:29;19.08;;;8.05;;
59310;SDS011;45078;51.654;21.250;2023-02-14T13:26:13;15.43;;;6.65;;
59310;SDS011;45078;51.654;21.250;2023-02-14T13:28:56;17.08;;;8.05;;
59310;SDS011;45078;51.654;21.250;2023-02-14T13:31:30;18.67;;;7.90;;
59310;SDS011;45078;51.654;21.250;2023-02-14T13:33:57;23.55;;;8.85;;
59310;SDS011;45078;51.654;21.250;2023-02-14T13:36:27;18.20;;;7.68;;
59310;SDS011;45078;51.654;21.250;2023-02-14T13:38:55;19.98;;;8.20;;
59310;SDS011;45078;51.654;21.250;2023-02-14T13:41:22;21.20;;;9.10;;
59310;SDS011;45078;51.654;21.250;2023-02-14T13:49:00;13.32;;;6.53;;
59310;SDS011;45078;51.654;21.250;2023-02-14T14:02:44;22.55;;;9.10;;
59310;SDS011;45078;51.654;21.250;2023-02-14T14:21:28;21.90;;;9.10;;
59310;SDS011;45078;51.654;21.250;2023-02-14T14:24:14;17.35;;;7.00;;
59310;SDS011;45078;51.654;21.250;2023-02-14T14:26:48;21.55;;;8.77;;
59310;SDS011;45078;51.654;21.250;2023-02-14T14:29:26;29.08;;;8.82;;
59310;SDS011;45078;51.654;21.250;2023-02-14T14:32:08;24.48;;;10.00;;
59310;SDS011;45078;51.654;21.250;2023-02-14T14:34:57;17.17;;;7.68;;
59310;SDS011;45078;51.654;21.250;2023-02-14T14:37:32;27.13;;;9.63;;
59310;SDS011;45078;51.654;21.250;2023-02-14T14:40:00;23.88;;;9.55;;
59310;SDS011;45078;51.654;21.250;2023-02-14T14:42:38;27.85;;;8.43;;
59310;SDS011;45078;51.654;21.250;2023-02-14T14:45:16;22.35;;;8.50;;
59310;SDS011;45078;51.654;21.250;2023-02-14T14:47:45;16.90;;;8.68;;
59310;SDS011;45078;51.654;21.250;2023-02-14T14:50:16;19.90;;;8.68;;
59310;SDS011;45078;51.654;21.250;2023-02-14T14:52:48;16.27;;;6.90;;
59310;SDS011;45078;51.654;21.250;2023-02-14T14:55:21;21.95;;;9.20;;
59310;SDS011;45078;51.654;21.250;2023-02-14T14:57:53;21.33;;;9.05;;
59310;SDS011;45078;51.654;21.250;2023-02-14T15:00:27;18.08;;;8.98;;
59310;SDS011;45078;51.654;21.250;2023-02-14T15:03:00;20.45;;;9.18;;
59310;SDS011;45078;51.654;21.250;2023-02-14T15:05:31;20.40;;;8.68;;
59310;SDS011;45078;51.654;21.250;2023-02-14T15:10:53;19.23;;;9.13;;
59310;SDS011;45078;51.654;21.250;2023-02-14T15:13:46;25.02;;;8.40;;
59310;SDS011;45078;51.654;21.250;2023-02-14T15:19:08;22.77;;;8.48;;
59310;SDS011;45078;51.654;21.250;2023-02-14T15:21:40;21.83;;;8.95;;
59310;SDS011;45078;51.654;21.250;2023-02-14T15:24:08;32.78;;;12.00;;
59310;SDS011;45078;51.654;21.250;2023-02-14T15:26:37;23.27;;;9.68;;
59310;SDS011;45078;51.654;21.250;2023-02-14T15:29:05;25.30;;;10.32;;
59310;SDS011;45078;51.654;21.250;2023-02-14T15:31:33;21.92;;;9.30;;
59310;SDS011;45078;51.654;21.250;2023-02-14T15:34:01;23.02;;;8.52;;
59310;SDS011;45078;51.654;21.250;2023-02-14T15:36:29;17.25;;;8.32;;
59310;SDS011;45078;51.654;21.250;2023-02-14T15:38:56;21.27;;;8.73;;
59310;SDS011;45078;51.654;21.250;2023-02-14T15:41:24;21.25;;;9.45;;
59310;SDS011;45078;51.654;21.250;2023-02-14T15:43:51;24.92;;;10.20;;
59310;SDS011;45078;51.654;21.250;2023-02-14T15:48:56;13.18;;;6.43;;
59310;SDS011;45078;51.654;21.250;2023-02-14T15:51:26;18.50;;;8.55;;
59310;SDS011;45078;51.654;21.250;2023-02-14T15:53:55;21.98;;;8.38;;
59310;SDS011;45078;51.654;21.250;2023-02-14T15:58:59;22.95;;;9.57;;
59310;SDS011;45078;51.654;21.250;2023-02-14T16:01:36;20.90;;;9.82;;
59310;SDS011;45078;51.654;21.250;2023-02-14T16:04:03;24.65;;;11.23;;
59310;SDS011;45078;51.654;21.250;2023-02-14T16:06:35;22.75;;;10.23;;
59310;SDS011;45078;51.654;21.250;2023-02-14T16:11:54;23.15;;;10.02;;
59310;SDS011;45078;51.654;21.250;2023-02-14T16:14:28;23.88;;;9.88;;
59310;SDS011;45078;51.654;21.250;2023-02-14T16:16:57;16.00;;;7.70;;
59310;SDS011;45078;51.654;21.250;2023-02-14T16:19:38;18.95;;;7.72;;
59310;SDS011;45078;51.654;21.250;2023-02-14T16:22:08;24.05;;;9.15;;
59310;SDS011;45078;51.654;21.250;2023-02-14T16:24:35;18.48;;;9.57;;
59310;SDS011;45078;51.654;21.250;2023-02-14T16:27:02;21.90;;;10.45;;
59310;SDS011;45078;51.654;21.250;2023-02-14T16:29:31;25.08;;;9.68;;
59310;SDS011;45078;51.654;21.250;2023-02-14T16:32:08;25.67;;;11.43;;
59310;SDS011;45078;51.654;21.250;2023-02-14T16:34:42;19.40;;;9.07;;
59310;SDS011;45078;51.654;21.250;2023-02-14T16:37:16;24.58;;;10.10;;
59310;SDS011;45078;51.654;21.250;2023-02-14T16:39:46;19.95;;;9.18;;
59310;SDS011;45078;51.654;21.250;2023-02-14T16:42:14;22.10;;;9.25;;
59310;SDS011;45078;51.654;21.250;2023-02-14T16:44:44;24.15;;;10.30;;
59310;SDS011;45078;51.654;21.250;2023-02-14T16:47:11;32.45;;;10.63;;
59310;SDS011;45078;51.654;21.250;2023-02-14T16:49:38;25.60;;;9.60;;
59310;SDS011;45078;51.654;21.250;2023-02-14T16:52:05;30.33;;;12.18;;
59310;SDS011;45078;51.654;21.250;2023-02-14T16:54:40;23.48;;;11.38;;
59310;SDS011;45078;51.654;21.250;2023-02-14T16:57:06;26.63;;;11.15;;
59310;SDS011;45078;51.654;21.250;2023-02-14T16:59:37;29.17;;;12.25;;
59310;SDS011;45078;51.654;21.250;2023-02-14T17:02:03;29.63;;;11.27;;
59310;SDS011;45078;51.654;21.250;2023-02-14T17:04:29;25.70;;;11.38;;
59310;SDS011;45078;51.654;21.250;2023-02-14T17:06:55;20.65;;;9.02;;
59310;SDS011;45078;51.654;21.250;2023-02-14T17:09:23;29.58;;;11.07;;
59310;SDS011;45078;51.654;21.250;2023-02-14T17:11:54;28.45;;;11.63;;
59310;SDS011;45078;51.654;21.250;2023-02-14T17:14:25;25.90;;;10.82;;
59310;SDS011;45078;51.654;21.250;2023-02-14T17:16:54;34.25;;;12.30;;
59310;SDS011;45078;51.654;21.250;2023-02-14T17:19:21;23.83;;;9.68;;
59310;SDS011;45078;51.654;21.250;2023-02-14T17:21:47;29.05;;;12.45;;
59310;SDS011;45078;51.654;21.250;2023-02-14T17:24:13;27.75;;;11.55;;
59310;SDS011;45078;51.654;21.250;2023-02-14T17:26:40;31.00;;;11.02;;
59310;SDS011;45078;51.654;21.250;2023-02-14T17:29:05;28.15;;;11.20;;
59310;SDS011;45078;51.654;21.250;2023-02-14T17:31:34;25.60;;;9.73;;
59310;SDS011;45078;51.654;21.250;2023-02-14T17:34:00;26.00;;;10.95;;
59310;SDS011;45078;51.654;21.250;2023-02-14T17:36:26;19.58;;;9.77;;
59310;SDS011;45078;51.654;21.250;2023-02-14T17:38:52;22.88;;;10.07;;
59310;SDS011;45078;51.654;21.250;2023-02-14T17:41:19;29.55;;;10.90;;
59310;SDS011;45078;51.654;21.250;2023-02-14T17:43:47;26.73;;;11.15;;
59310;SDS011;45078;51.654;21.250;2023-02-14T17:46:14;21.60;;;9.20;;
59310;SDS011;45078;51.654;21.250;2023-02-14T17:48:42;27.42;;;9.15;;
59310;SDS011;45078;51.654;21.250;2023-02-14T17:51:09;25.77;;;11.48;;
59310;SDS011;45078;51.654;21.250;2023-02-14T17:53:36;23.40;;;7.85;;
59310;SDS011;45078;51.654;21.250;2023-02-14T17:56:06;26.98;;;11.48;;
59310;SDS011;45078;51.654;21.250;2023-02-14T17:58:34;30.40;;;10.88;;